sensor_id;sensor_type;location;lat;lon;timestamp;P1;durP1;ratioP1;P2;durP2;ratioP2
41946;SDS011;27638;42.184;24.848;2023-05-17T00:02:04;3.33;;;2.20;;
41946;SDS011;27638;42.184;24.848;2023-05-17T00:04:30;4.45;;;2.45;;
41946;SDS011;27638;42.184;24.848;2023-05-17T00:06:57;10.15;;;3.17;;
41946;SDS011;27638;42.184;24.848;2023-05-17T00:09:22;6.18;;;3.00;;
41946;SDS011;27638;42.184;24.848;2023-05-17T00:11:48;5.32;;;3.50;;
41946;SDS011;27638;42.184;24.848;2023-05-17T00:14:13;5.78;;;3.67;;
41946;SDS011;27638;42.184;24.848;2023-05-17T00:16:39;7.05;;;3.38;;
41946;SDS011;27638;42.184;24.848;2023-05-17T00:19:04;6.50;;;3.60;;
41946;SDS011;27638;42.184;24.848;2023-05-17T00:21:30;6.38;;;3.45;;
41946;SDS011;27638;42.184;24.848;2023-05-17T00:23:55;6.85;;;3.33;;
41946;SDS011;27638;42.184;24.848;2023-05-17T00:26:21;5.22;;;3.53;;
41946;SDS011;27638;42.184;24.848;2023-05-17T00:28:46;5.78;;;3.65;;
41946;SDS011;27638;42.184;24.848;2023-05-17T00:31:11;6.15;;;3.53;;
41946;SDS011;27638;42.184;24.848;2023-05-17T00:33:37;5.25;;;3.63;;
41946;SDS011;27638;42.184;24.848;2023-05-17T00:36:02;7.10;;;3.85;;
41946;SDS011;27638;42.184;24.848;2023-05-17T00:38:28;5.82;;;3.97;;
41946;SDS011;27638;42.184;24.848;2023-05-17T00:40:54;6.30;;;4.18;;
41946;SDS011;27638;42.184;24.848;2023-05-17T00:43:19;6.70;;;4.05;;
41946;SDS011;27638;42.184;24.848;2023-05-17T00:45:45;7.15;;;3.88;;
41946;SDS011;27638;42.184;24.848;2023-05-17T00:48:12;6.38;;;4.00;;
41946;SDS011;27638;42.184;24.848;2023-05-17T00:50:38;6.05;;;4.10;;
41946;SDS011;27638;42.184;24.848;2023-05-17T00:53:05;5.80;;;4.32;;
41946;SDS011;27638;42.184;24.848;2023-05-17T00:55:30;5.18;;;4.13;;
41946;SDS011;27638;42.184;24.848;2023-05-17T00:57:56;5.03;;;4.00;;
41946;SDS011;27638;42.184;24.848;2023-05-17T01:00:21;5.95;;;3.95;;
41946;SDS011;27638;42.184;24.848;2023-05-17T01:02:48;6.20;;;3.88;;
41946;SDS011;27638;42.184;24.848;2023-05-17T01:05:13;8.10;;;4.30;;
41946;SDS011;27638;42.184;24.848;2023-05-17T01:07:39;6.35;;;4.10;;
41946;SDS011;27638;42.184;24.848;2023-05-17T01:10:05;6.70;;;4.03;;
41946;SDS011;27638;42.184;24.848;2023-05-17T01:15:13;6.75;;;3.95;;
41946;SDS011;27638;42.184;24.848;2023-05-17T01:17:51;6.80;;;4.43;;
41946;SDS011;27638;42.184;24.848;2023-05-17T01:23:06;8.15;;;4.32;;
41946;SDS011;27638;42.184;24.848;2023-05-17T01:28:28;6.07;;;3.47;;
41946;SDS011;27638;42.184;24.848;2023-05-17T01:30:56;6.22;;;3.97;;
41946;SDS011;27638;42.184;24.848;2023-05-17T01:33:23;5.82;;;4.10;;
41946;SDS011;27638;42.184;24.848;2023-05-17T01:35:49;7.63;;;4.88;;
41946;SDS011;27638;42.184;24.848;2023-05-17T01:38:14;5.53;;;4.28;;
41946;SDS011;27638;42.184;24.848;2023-05-17T01:40:44;7.65;;;4.45;;
41946;SDS011;27638;42.184;24.848;2023-05-17T01:43:40;7.18;;;4.00;;
41946;SDS011;27638;42.184;24.848;2023-05-17T01:46:27;9.85;;;4.53;;
41946;SDS011;27638;42.184;24.848;2023-05-17T01:57:38;5.82;;;3.67;;
41946;SDS011;27638;42.184;24.848;2023-05-17T02:00:05;7.68;;;4.57;;
41946;SDS011;27638;42.184;24.848;2023-05-17T02:02:35;9.70;;;4.40;;
41946;SDS011;27638;42.184;24.848;2023-05-17T02:05:00;8.02;;;4.60;;
41946;SDS011;27638;42.184;24.848;2023-05-17T02:07:25;9.88;;;4.60;;
41946;SDS011;27638;42.184;24.848;2023-05-17T02:09:51;8.32;;;4.97;;
41946;SDS011;27638;42.184;24.848;2023-05-17T02:12:16;6.80;;;4.07;;
41946;SDS011;27638;42.184;24.848;2023-05-17T02:14:42;8.02;;;4.70;;
41946;SDS011;27638;42.184;24.848;2023-05-17T02:17:07;8.00;;;5.03;;
41946;SDS011;27638;42.184;24.848;2023-05-17T02:19:33;7.07;;;4.07;;
41946;SDS011;27638;42.184;24.848;2023-05-17T02:21:58;7.25;;;4.20;;
41946;SDS011;27638;42.184;24.848;2023-05-17T02:24:24;6.20;;;4.20;;
41946;SDS011;27638;42.184;24.848;2023-05-17T02:26:49;7.63;;;4.78;;
41946;SDS011;27638;42.184;24.848;2023-05-17T02:29:15;6.93;;;4.40;;
41946;SDS011;27638;42.184;24.848;2023-05-17T02:31:40;7.55;;;4.10;;
41946;SDS011;27638;42.184;24.848;2023-05-17T02:34:05;7.78;;;4.45;;
41946;SDS011;27638;42.184;24.848;2023-05-17T02:36:31;6.60;;;4.32;;
41946;SDS011;27638;42.184;24.848;2023-05-17T02:38:56;9.88;;;4.40;;
41946;SDS011;27638;42.184;24.848;2023-05-17T02:41:22;7.28;;;5.03;;
41946;SDS011;27638;42.184;24.848;2023-05-17T02:43:47;5.97;;;4.32;;
41946;SDS011;27638;42.184;24.848;2023-05-17T02:46:13;8.65;;;4.57;;
41946;SDS011;27638;42.184;24.848;2023-05-17T02:48:39;7.10;;;4.93;;
41946;SDS011;27638;42.184;24.848;2023-05-17T02:51:04;7.88;;;4.35;;
41946;SDS011;27638;42.184;24.848;2023-05-17T02:53:30;8.05;;;4.57;;
41946;SDS011;27638;42.184;24.848;2023-05-17T02:55:55;7.32;;;4.90;;
41946;SDS011;27638;42.184;24.848;2023-05-17T02:58:22;8.27;;;5.22;;
41946;SDS011;27638;42.184;24.848;2023-05-17T03:00:49;8.75;;;5.03;;
41946;SDS011;27638;42.184;24.848;2023-05-17T03:03:15;7.63;;;4.68;;
41946;SDS011;27638;42.184;24.848;2023-05-17T03:05:41;8.25;;;5.70;;
41946;SDS011;27638;42.184;24.848;2023-05-17T03:08:06;9.13;;;5.57;;
41946;SDS011;27638;42.184;24.848;2023-05-17T03:10:32;7.25;;;4.82;;
41946;SDS011;27638;42.184;24.848;2023-05-17T03:12:57;8.50;;;4.80;;
41946;SDS011;27638;42.184;24.848;2023-05-17T03:15:23;6.88;;;4.90;;
41946;SDS011;27638;42.184;24.848;2023-05-17T03:17:50;10.25;;;5.10;;
41946;SDS011;27638;42.184;24.848;2023-05-17T03:20:16;12.25;;;5.80;;
41946;SDS011;27638;42.184;24.848;2023-05-17T03:22:42;6.45;;;5.10;;
41946;SDS011;27638;42.184;24.848;2023-05-17T03:25:07;8.45;;;5.05;;
41946;SDS011;27638;42.184;24.848;2023-05-17T03:27:33;7.07;;;5.07;;
41946;SDS011;27638;42.184;24.848;2023-05-17T03:29:58;7.20;;;4.88;;
41946;SDS011;27638;42.184;24.848;2023-05-17T03:32:24;6.68;;;4.63;;
41946;SDS011;27638;42.184;24.848;2023-05-17T03:34:50;7.35;;;4.78;;
41946;SDS011;27638;42.184;24.848;2023-05-17T03:37:15;8.00;;;4.63;;
41946;SDS011;27638;42.184;24.848;2023-05-17T03:39:41;7.53;;;4.82;;
41946;SDS011;27638;42.184;24.848;2023-05-17T03:42:06;7.28;;;4.97;;
41946;SDS011;27638;42.184;24.848;2023-05-17T03:44:32;9.82;;;5.13;;
41946;SDS011;27638;42.184;24.848;2023-05-17T03:46:57;10.38;;;5.05;;
41946;SDS011;27638;42.184;24.848;2023-05-17T03:49:22;10.95;;;5.60;;
41946;SDS011;27638;42.184;24.848;2023-05-17T03:51:48;8.35;;;5.50;;
41946;SDS011;27638;42.184;24.848;2023-05-17T03:54:13;7.85;;;4.95;;
41946;SDS011;27638;42.184;24.848;2023-05-17T03:56:39;9.77;;;5.45;;
41946;SDS011;27638;42.184;24.848;2023-05-17T03:59:04;8.38;;;5.47;;
41946;SDS011;27638;42.184;24.848;2023-05-17T04:01:30;9.27;;;5.53;;
41946;SDS011;27638;42.184;24.848;2023-05-17T04:03:55;8.50;;;5.57;;
41946;SDS011;27638;42.184;24.848;2023-05-17T04:06:20;9.75;;;6.60;;
41946;SDS011;27638;42.184;24.848;2023-05-17T04:08:46;11.52;;;6.35;;
41946;SDS011;27638;42.184;24.848;2023-05-17T04:11:11;12.25;;;6.25;;
41946;SDS011;27638;42.184;24.848;2023-05-17T04:13:38;11.70;;;6.45;;
41946;SDS011;27638;42.184;24.848;2023-05-17T04:16:05;9.95;;;6.45;;
41946;SDS011;27638;42.184;24.848;2023-05-17T04:18:34;14.73;;;6.45;;
41946;SDS011;27638;42.184;24.848;2023-05-17T04:21:01;10.95;;;6.78;;
41946;SDS011;27638;42.184;24.848;2023-05-17T04:23:27;15.23;;;6.90;;
41946;SDS011;27638;42.184;24.848;2023-05-17T04:25:53;11.82;;;6.50;;
41946;SDS011;27638;42.184;24.848;2023-05-17T04:28:18;10.32;;;6.18;;
41946;SDS011;27638;42.184;24.848;2023-05-17T04:30:46;10.95;;;6.50;;
41946;SDS011;27638;42.184;24.848;2023-05-17T04:33:11;11.02;;;6.38;;
41946;SDS011;27638;42.184;24.848;2023-05-17T04:35:37;10.68;;;6.43;;
41946;SDS011;27638;42.184;24.848;2023-05-17T04:38:05;9.48;;;6.35;;
41946;SDS011;27638;42.184;24.848;2023-05-17T04:40:31;10.68;;;6.07;;
41946;SDS011;27638;42.184;24.848;2023-05-17T04:42:56;11.00;;;6.32;;
41946;SDS011;27638;42.184;24.848;2023-05-17T04:45:22;10.48;;;5.90;;
41946;SDS011;27638;42.184;24.848;2023-05-17T04:47:48;14.45;;;6.35;;
41946;SDS011;27638;42.184;24.848;2023-05-17T04:50:15;10.75;;;7.00;;
41946;SDS011;27638;42.184;24.848;2023-05-17T04:52:41;14.25;;;7.18;;
41946;SDS011;27638;42.184;24.848;2023-05-17T04:55:06;10.10;;;6.30;;
41946;SDS011;27638;42.184;24.848;2023-05-17T04:57:32;10.90;;;6.65;;
41946;SDS011;27638;42.184;24.848;2023-05-17T04:59:57;12.23;;;7.05;;
41946;SDS011;27638;42.184;24.848;2023-05-17T05:02:23;13.25;;;6.88;;
41946;SDS011;27638;42.184;24.848;2023-05-17T05:04:48;12.52;;;6.93;;
41946;SDS011;27638;42.184;24.848;2023-05-17T05:07:13;11.07;;;6.93;;
41946;SDS011;27638;42.184;24.848;2023-05-17T05:09:39;11.20;;;7.32;;
41946;SDS011;27638;42.184;24.848;2023-05-17T05:12:04;13.07;;;8.13;;
41946;SDS011;27638;42.184;24.848;2023-05-17T05:14:30;15.00;;;7.75;;
41946;SDS011;27638;42.184;24.848;2023-05-17T05:16:55;15.57;;;8.00;;
41946;SDS011;27638;42.184;24.848;2023-05-17T05:19:21;12.45;;;8.10;;
41946;SDS011;27638;42.184;24.848;2023-05-17T05:21:46;13.63;;;8.63;;
41946;SDS011;27638;42.184;24.848;2023-05-17T05:24:12;14.98;;;9.13;;
41946;SDS011;27638;42.184;24.848;2023-05-17T05:26:37;20.52;;;9.38;;
41946;SDS011;27638;42.184;24.848;2023-05-17T05:29:03;16.13;;;9.30;;
41946;SDS011;27638;42.184;24.848;2023-05-17T05:31:28;17.58;;;8.98;;
41946;SDS011;27638;42.184;24.848;2023-05-17T05:33:54;17.02;;;9.70;;
41946;SDS011;27638;42.184;24.848;2023-05-17T05:36:19;16.05;;;9.70;;
41946;SDS011;27638;42.184;24.848;2023-05-17T05:38:45;13.40;;;9.25;;
41946;SDS011;27638;42.184;24.848;2023-05-17T05:41:10;14.32;;;9.25;;
41946;SDS011;27638;42.184;24.848;2023-05-17T05:43:36;15.25;;;9.85;;
41946;SDS011;27638;42.184;24.848;2023-05-17T05:46:02;17.23;;;10.20;;
41946;SDS011;27638;42.184;24.848;2023-05-17T05:48:27;15.80;;;9.65;;
41946;SDS011;27638;42.184;24.848;2023-05-17T05:50:53;14.75;;;9.27;;
41946;SDS011;27638;42.184;24.848;2023-05-17T05:53:18;14.73;;;8.57;;
41946;SDS011;27638;42.184;24.848;2023-05-17T05:55:43;17.20;;;10.10;;
41946;SDS011;27638;42.184;24.848;2023-05-17T05:58:09;14.60;;;9.85;;
41946;SDS011;27638;42.184;24.848;2023-05-17T06:00:34;16.50;;;9.27;;
41946;SDS011;27638;42.184;24.848;2023-05-17T06:03:01;16.55;;;9.45;;
41946;SDS011;27638;42.184;24.848;2023-05-17T06:05:26;15.75;;;10.00;;
41946;SDS011;27638;42.184;24.848;2023-05-17T06:07:52;14.65;;;9.82;;
41946;SDS011;27638;42.184;24.848;2023-05-17T06:10:17;14.23;;;9.50;;
41946;SDS011;27638;42.184;24.848;2023-05-17T06:12:43;15.90;;;10.88;;
41946;SDS011;27638;42.184;24.848;2023-05-17T06:15:08;16.95;;;10.38;;
41946;SDS011;27638;42.184;24.848;2023-05-17T06:17:34;16.40;;;9.50;;
41946;SDS011;27638;42.184;24.848;2023-05-17T06:20:00;13.95;;;9.43;;
41946;SDS011;27638;42.184;24.848;2023-05-17T06:22:25;14.90;;;9.73;;
41946;SDS011;27638;42.184;24.848;2023-05-17T06:24:51;20.77;;;10.20;;
41946;SDS011;27638;42.184;24.848;2023-05-17T06:27:16;19.38;;;11.15;;
41946;SDS011;27638;42.184;24.848;2023-05-17T06:29:41;20.67;;;11.38;;
41946;SDS011;27638;42.184;24.848;2023-05-17T06:32:07;16.13;;;10.43;;
41946;SDS011;27638;42.184;24.848;2023-05-17T06:34:32;18.20;;;9.88;;
41946;SDS011;27638;42.184;24.848;2023-05-17T06:36:58;17.38;;;9.30;;
41946;SDS011;27638;42.184;24.848;2023-05-17T06:39:23;17.63;;;10.10;;
41946;SDS011;27638;42.184;24.848;2023-05-17T06:41:49;17.13;;;9.68;;
41946;SDS011;27638;42.184;24.848;2023-05-17T06:44:14;15.20;;;9.23;;
41946;SDS011;27638;42.184;24.848;2023-05-17T06:46:40;15.63;;;9.48;;
41946;SDS011;27638;42.184;24.848;2023-05-17T06:49:05;14.30;;;7.97;;
41946;SDS011;27638;42.184;24.848;2023-05-17T06:51:31;13.20;;;7.57;;
41946;SDS011;27638;42.184;24.848;2023-05-17T06:53:56;11.40;;;6.22;;
41946;SDS011;27638;42.184;24.848;2023-05-17T06:56:21;11.00;;;7.20;;
41946;SDS011;27638;42.184;24.848;2023-05-17T06:58:47;11.38;;;6.97;;
41946;SDS011;27638;42.184;24.848;2023-05-17T07:01:12;11.20;;;7.57;;
41946;SDS011;27638;42.184;24.848;2023-05-17T07:03:38;11.23;;;6.80;;
41946;SDS011;27638;42.184;24.848;2023-05-17T07:06:03;10.60;;;6.88;;
41946;SDS011;27638;42.184;24.848;2023-05-17T07:08:29;10.68;;;6.15;;
41946;SDS011;27638;42.184;24.848;2023-05-17T07:10:54;10.35;;;6.78;;
41946;SDS011;27638;42.184;24.848;2023-05-17T07:13:20;15.15;;;7.00;;
41946;SDS011;27638;42.184;24.848;2023-05-17T07:15:45;12.70;;;7.68;;
41946;SDS011;27638;42.184;24.848;2023-05-17T07:18:11;13.90;;;8.10;;
41946;SDS011;27638;42.184;24.848;2023-05-17T07:20:36;14.60;;;8.40;;
41946;SDS011;27638;42.184;24.848;2023-05-17T07:23:01;16.65;;;9.50;;
41946;SDS011;27638;42.184;24.848;2023-05-17T07:25:27;14.02;;;8.45;;
41946;SDS011;27638;42.184;24.848;2023-05-17T07:27:53;16.98;;;11.23;;
41946;SDS011;27638;42.184;24.848;2023-05-17T07:30:18;18.60;;;10.73;;
41946;SDS011;27638;42.184;24.848;2023-05-17T07:32:44;20.85;;;11.85;;
41946;SDS011;27638;42.184;24.848;2023-05-17T07:35:09;18.90;;;12.25;;
41946;SDS011;27638;42.184;24.848;2023-05-17T07:37:35;19.33;;;12.32;;
41946;SDS011;27638;42.184;24.848;2023-05-17T07:40:00;18.98;;;11.13;;
41946;SDS011;27638;42.184;24.848;2023-05-17T07:42:26;16.48;;;10.75;;
41946;SDS011;27638;42.184;24.848;2023-05-17T07:44:51;20.30;;;10.95;;
41946;SDS011;27638;42.184;24.848;2023-05-17T07:47:17;20.45;;;11.07;;
41946;SDS011;27638;42.184;24.848;2023-05-17T07:49:42;18.02;;;10.35;;
41946;SDS011;27638;42.184;24.848;2023-05-17T07:52:08;17.55;;;12.30;;
41946;SDS011;27638;42.184;24.848;2023-05-17T07:54:33;18.70;;;10.77;;
41946;SDS011;27638;42.184;24.848;2023-05-17T07:56:59;18.42;;;10.45;;
41946;SDS011;27638;42.184;24.848;2023-05-17T07:59:24;16.77;;;11.10;;
41946;SDS011;27638;42.184;24.848;2023-05-17T08:01:50;21.48;;;10.98;;
41946;SDS011;27638;42.184;24.848;2023-05-17T08:04:16;20.50;;;11.82;;
41946;SDS011;27638;42.184;24.848;2023-05-17T08:06:43;16.90;;;10.90;;
41946;SDS011;27638;42.184;24.848;2023-05-17T08:09:10;21.48;;;11.45;;
41946;SDS011;27638;42.184;24.848;2023-05-17T08:11:36;16.27;;;10.02;;
41946;SDS011;27638;42.184;24.848;2023-05-17T08:14:02;17.38;;;11.57;;
41946;SDS011;27638;42.184;24.848;2023-05-17T08:16:27;18.15;;;11.13;;
41946;SDS011;27638;42.184;24.848;2023-05-17T08:18:53;18.80;;;11.13;;
41946;SDS011;27638;42.184;24.848;2023-05-17T08:21:18;16.23;;;10.38;;
41946;SDS011;27638;42.184;24.848;2023-05-17T08:23:44;18.52;;;10.70;;
41946;SDS011;27638;42.184;24.848;2023-05-17T08:26:09;16.77;;;11.65;;
41946;SDS011;27638;42.184;24.848;2023-05-17T08:28:36;21.55;;;11.63;;
41946;SDS011;27638;42.184;24.848;2023-05-17T08:31:04;20.35;;;12.35;;
41946;SDS011;27638;42.184;24.848;2023-05-17T08:33:30;16.73;;;10.35;;
41946;SDS011;27638;42.184;24.848;2023-05-17T08:35:56;22.08;;;11.82;;
41946;SDS011;27638;42.184;24.848;2023-05-17T08:38:25;19.00;;;11.73;;
41946;SDS011;27638;42.184;24.848;2023-05-17T08:40:54;22.45;;;13.00;;
41946;SDS011;27638;42.184;24.848;2023-05-17T08:43:20;22.27;;;13.40;;
41946;SDS011;27638;42.184;24.848;2023-05-17T08:45:49;30.02;;;18.15;;
41946;SDS011;27638;42.184;24.848;2023-05-17T08:48:15;28.13;;;18.17;;
41946;SDS011;27638;42.184;24.848;2023-05-17T08:50:41;23.38;;;15.02;;
41946;SDS011;27638;42.184;24.848;2023-05-17T08:53:08;18.17;;;11.63;;
41946;SDS011;27638;42.184;24.848;2023-05-17T08:55:34;18.50;;;10.95;;
41946;SDS011;27638;42.184;24.848;2023-05-17T08:58:00;14.85;;;9.68;;
41946;SDS011;27638;42.184;24.848;2023-05-17T09:00:26;16.05;;;10.00;;
41946;SDS011;27638;42.184;24.848;2023-05-17T09:02:52;19.05;;;9.80;;
41946;SDS011;27638;42.184;24.848;2023-05-17T09:05:17;15.15;;;9.90;;
41946;SDS011;27638;42.184;24.848;2023-05-17T09:07:44;13.05;;;9.25;;
41946;SDS011;27638;42.184;24.848;2023-05-17T09:10:11;15.20;;;9.35;;
41946;SDS011;27638;42.184;24.848;2023-05-17T09:12:37;14.60;;;9.65;;
41946;SDS011;27638;42.184;24.848;2023-05-17T09:15:13;15.50;;;10.43;;
41946;SDS011;27638;42.184;24.848;2023-05-17T09:17:40;14.35;;;10.20;;
41946;SDS011;27638;42.184;24.848;2023-05-17T09:20:06;20.02;;;10.73;;
41946;SDS011;27638;42.184;24.848;2023-05-17T09:22:32;14.57;;;10.55;;
41946;SDS011;27638;42.184;24.848;2023-05-17T09:24:59;15.55;;;10.60;;
41946;SDS011;27638;42.184;24.848;2023-05-17T09:27:29;17.50;;;10.60;;
41946;SDS011;27638;42.184;24.848;2023-05-17T09:29:55;17.25;;;10.88;;
41946;SDS011;27638;42.184;24.848;2023-05-17T09:32:22;20.77;;;13.32;;
41946;SDS011;27638;42.184;24.848;2023-05-17T09:34:49;20.05;;;12.90;;
41946;SDS011;27638;42.184;24.848;2023-05-17T09:37:18;18.05;;;12.07;;
41946;SDS011;27638;42.184;24.848;2023-05-17T09:39:44;20.23;;;12.35;;
41946;SDS011;27638;42.184;24.848;2023-05-17T09:42:11;19.10;;;11.57;;
41946;SDS011;27638;42.184;24.848;2023-05-17T09:44:47;17.52;;;11.18;;
41946;SDS011;27638;42.184;24.848;2023-05-17T09:49:52;17.42;;;11.63;;
41946;SDS011;27638;42.184;24.848;2023-05-17T09:52:19;16.40;;;10.80;;
41946;SDS011;27638;42.184;24.848;2023-05-17T09:54:54;16.98;;;11.70;;
41946;SDS011;27638;42.184;24.848;2023-05-17T09:57:20;20.05;;;10.60;;
41946;SDS011;27638;42.184;24.848;2023-05-17T09:59:47;17.55;;;10.77;;
41946;SDS011;27638;42.184;24.848;2023-05-17T10:02:18;17.77;;;11.57;;
41946;SDS011;27638;42.184;24.848;2023-05-17T10:04:51;18.52;;;11.38;;
41946;SDS011;27638;42.184;24.848;2023-05-17T10:07:18;17.33;;;11.43;;
41946;SDS011;27638;42.184;24.848;2023-05-17T10:09:47;20.52;;;11.60;;
41946;SDS011;27638;42.184;24.848;2023-05-17T10:12:17;17.23;;;10.32;;
41946;SDS011;27638;42.184;24.848;2023-05-17T10:14:45;13.73;;;10.85;;
41946;SDS011;27638;42.184;24.848;2023-05-17T10:17:11;15.48;;;10.20;;
41946;SDS011;27638;42.184;24.848;2023-05-17T10:19:38;16.85;;;10.55;;
41946;SDS011;27638;42.184;24.848;2023-05-17T10:22:04;20.67;;;11.50;;
41946;SDS011;27638;42.184;24.848;2023-05-17T10:24:31;20.30;;;12.20;;
41946;SDS011;27638;42.184;24.848;2023-05-17T10:26:56;19.92;;;12.55;;
41946;SDS011;27638;42.184;24.848;2023-05-17T10:29:22;16.13;;;11.48;;
41946;SDS011;27638;42.184;24.848;2023-05-17T10:31:48;18.48;;;12.73;;
41946;SDS011;27638;42.184;24.848;2023-05-17T10:34:18;20.67;;;12.68;;
41946;SDS011;27638;42.184;24.848;2023-05-17T10:36:44;17.52;;;11.93;;
41946;SDS011;27638;42.184;24.848;2023-05-17T10:39:10;18.83;;;11.43;;
41946;SDS011;27638;42.184;24.848;2023-05-17T10:41:38;18.33;;;11.73;;
41946;SDS011;27638;42.184;24.848;2023-05-17T10:44:06;19.58;;;12.88;;
41946;SDS011;27638;42.184;24.848;2023-05-17T10:46:34;21.23;;;13.50;;
41946;SDS011;27638;42.184;24.848;2023-05-17T10:49:00;21.85;;;14.00;;
41946;SDS011;27638;42.184;24.848;2023-05-17T10:54:02;19.70;;;13.10;;
41946;SDS011;27638;42.184;24.848;2023-05-17T11:01:49;17.70;;;12.23;;
41946;SDS011;27638;42.184;24.848;2023-05-17T11:04:19;19.38;;;12.90;;
41946;SDS011;27638;42.184;24.848;2023-05-17T11:09:40;22.77;;;13.57;;
41946;SDS011;27638;42.184;24.848;2023-05-17T11:12:09;23.95;;;13.07;;
41946;SDS011;27638;42.184;24.848;2023-05-17T11:14:50;21.63;;;12.90;;
41946;SDS011;27638;42.184;24.848;2023-05-17T11:17:20;20.58;;;12.70;;
41946;SDS011;27638;42.184;24.848;2023-05-17T11:22:24;18.98;;;11.95;;
41946;SDS011;27638;42.184;24.848;2023-05-17T11:24:51;21.30;;;12.48;;
41946;SDS011;27638;42.184;24.848;2023-05-17T11:27:19;20.75;;;11.88;;
41946;SDS011;27638;42.184;24.848;2023-05-17T11:29:45;20.90;;;13.85;;
41946;SDS011;27638;42.184;24.848;2023-05-17T11:32:12;18.35;;;12.50;;
41946;SDS011;27638;42.184;24.848;2023-05-17T11:34:38;20.27;;;12.68;;
41946;SDS011;27638;42.184;24.848;2023-05-17T11:37:04;19.42;;;12.63;;
41946;SDS011;27638;42.184;24.848;2023-05-17T11:39:34;19.55;;;12.57;;
41946;SDS011;27638;42.184;24.848;2023-05-17T11:42:00;22.45;;;12.88;;
41946;SDS011;27638;42.184;24.848;2023-05-17T11:44:29;19.55;;;12.57;;
41946;SDS011;27638;42.184;24.848;2023-05-17T11:47:00;18.10;;;12.20;;
41946;SDS011;27638;42.184;24.848;2023-05-17T11:49:29;17.17;;;12.07;;
41946;SDS011;27638;42.184;24.848;2023-05-17T11:51:57;19.92;;;13.20;;
41946;SDS011;27638;42.184;24.848;2023-05-17T11:54:23;18.15;;;11.93;;
41946;SDS011;27638;42.184;24.848;2023-05-17T11:56:50;16.85;;;12.07;;
41946;SDS011;27638;42.184;24.848;2023-05-17T11:59:20;19.13;;;11.93;;
41946;SDS011;27638;42.184;24.848;2023-05-17T12:01:47;19.60;;;12.82;;
41946;SDS011;27638;42.184;24.848;2023-05-17T12:04:24;20.52;;;12.82;;
41946;SDS011;27638;42.184;24.848;2023-05-17T12:06:54;17.50;;;11.50;;
41946;SDS011;27638;42.184;24.848;2023-05-17T12:09:21;17.50;;;12.07;;
41946;SDS011;27638;42.184;24.848;2023-05-17T12:11:47;20.02;;;12.70;;
41946;SDS011;27638;42.184;24.848;2023-05-17T12:14:15;19.45;;;12.70;;
41946;SDS011;27638;42.184;24.848;2023-05-17T12:16:42;19.90;;;14.02;;
41946;SDS011;27638;42.184;24.848;2023-05-17T12:19:18;20.27;;;14.00;;
41946;SDS011;27638;42.184;24.848;2023-05-17T12:21:45;19.38;;;12.75;;
41946;SDS011;27638;42.184;24.848;2023-05-17T12:24:10;21.27;;;13.93;;
41946;SDS011;27638;42.184;24.848;2023-05-17T12:26:41;18.08;;;12.15;;
41946;SDS011;27638;42.184;24.848;2023-05-17T12:29:08;18.92;;;12.52;;
41946;SDS011;27638;42.184;24.848;2023-05-17T12:31:44;19.05;;;13.13;;
41946;SDS011;27638;42.184;24.848;2023-05-17T12:34:13;16.27;;;11.63;;
41946;SDS011;27638;42.184;24.848;2023-05-17T12:36:41;18.02;;;12.20;;
41946;SDS011;27638;42.184;24.848;2023-05-17T12:39:08;15.30;;;11.38;;
41946;SDS011;27638;42.184;24.848;2023-05-17T12:41:35;16.17;;;11.25;;
41946;SDS011;27638;42.184;24.848;2023-05-17T12:44:02;12.43;;;9.20;;
41946;SDS011;27638;42.184;24.848;2023-05-17T12:46:29;10.93;;;9.00;;
41946;SDS011;27638;42.184;24.848;2023-05-17T12:49:00;14.95;;;10.13;;
41946;SDS011;27638;42.184;24.848;2023-05-17T12:51:28;16.00;;;11.10;;
41946;SDS011;27638;42.184;24.848;2023-05-17T12:54:05;14.68;;;10.40;;
41946;SDS011;27638;42.184;24.848;2023-05-17T12:56:30;15.90;;;9.80;;
41946;SDS011;27638;42.184;24.848;2023-05-17T12:59:15;13.63;;;10.68;;
41946;SDS011;27638;42.184;24.848;2023-05-17T13:01:42;14.60;;;11.73;;
41946;SDS011;27638;42.184;24.848;2023-05-17T13:04:12;15.32;;;12.13;;
41946;SDS011;27638;42.184;24.848;2023-05-17T13:06:44;21.75;;;14.52;;
41946;SDS011;27638;42.184;24.848;2023-05-17T13:09:11;20.17;;;13.95;;
41946;SDS011;27638;42.184;24.848;2023-05-17T13:11:37;18.23;;;12.70;;
41946;SDS011;27638;42.184;24.848;2023-05-17T13:14:08;25.98;;;16.17;;
41946;SDS011;27638;42.184;24.848;2023-05-17T13:16:36;25.73;;;16.05;;
41946;SDS011;27638;42.184;24.848;2023-05-17T13:19:10;26.88;;;16.95;;
41946;SDS011;27638;42.184;24.848;2023-05-17T13:21:39;22.38;;;14.70;;
41946;SDS011;27638;42.184;24.848;2023-05-17T13:24:04;28.10;;;17.67;;
41946;SDS011;27638;42.184;24.848;2023-05-17T13:26:30;27.23;;;17.38;;
41946;SDS011;27638;42.184;24.848;2023-05-17T13:28:55;28.25;;;17.23;;
41946;SDS011;27638;42.184;24.848;2023-05-17T13:31:21;25.02;;;15.65;;
41946;SDS011;27638;42.184;24.848;2023-05-17T13:33:46;18.92;;;14.13;;
41946;SDS011;27638;42.184;24.848;2023-05-17T13:36:13;21.75;;;15.25;;
41946;SDS011;27638;42.184;24.848;2023-05-17T13:38:40;21.40;;;15.07;;
41946;SDS011;27638;42.184;24.848;2023-05-17T13:41:05;24.77;;;14.80;;
41946;SDS011;27638;42.184;24.848;2023-05-17T13:43:33;19.73;;;13.88;;
41946;SDS011;27638;42.184;24.848;2023-05-17T13:45:59;23.23;;;14.55;;
41946;SDS011;27638;42.184;24.848;2023-05-17T13:48:24;21.67;;;15.02;;
41946;SDS011;27638;42.184;24.848;2023-05-17T13:50:50;20.70;;;13.48;;
41946;SDS011;27638;42.184;24.848;2023-05-17T13:53:16;21.73;;;14.73;;
41946;SDS011;27638;42.184;24.848;2023-05-17T13:55:42;22.05;;;15.05;;
41946;SDS011;27638;42.184;24.848;2023-05-17T13:58:07;22.38;;;14.30;;
41946;SDS011;27638;42.184;24.848;2023-05-17T14:00:33;21.67;;;15.02;;
41946;SDS011;27638;42.184;24.848;2023-05-17T14:02:58;20.42;;;14.00;;
41946;SDS011;27638;42.184;24.848;2023-05-17T14:05:24;20.73;;;14.15;;
41946;SDS011;27638;42.184;24.848;2023-05-17T14:07:49;20.17;;;13.88;;
41946;SDS011;27638;42.184;24.848;2023-05-17T14:10:15;18.77;;;13.45;;
41946;SDS011;27638;42.184;24.848;2023-05-17T14:12:41;18.00;;;13.07;;
41946;SDS011;27638;42.184;24.848;2023-05-17T14:15:07;19.33;;;13.85;;
41946;SDS011;27638;42.184;24.848;2023-05-17T14:17:33;18.38;;;12.65;;
41946;SDS011;27638;42.184;24.848;2023-05-17T14:19:58;18.83;;;11.77;;
41946;SDS011;27638;42.184;24.848;2023-05-17T14:22:24;15.25;;;9.98;;
41946;SDS011;27638;42.184;24.848;2023-05-17T14:24:49;17.00;;;11.02;;
41946;SDS011;27638;42.184;24.848;2023-05-17T14:27:14;17.98;;;12.30;;
41946;SDS011;27638;42.184;24.848;2023-05-17T14:29:40;16.45;;;12.13;;
41946;SDS011;27638;42.184;24.848;2023-05-17T14:32:06;19.38;;;13.45;;
41946;SDS011;27638;42.184;24.848;2023-05-17T14:34:31;18.95;;;12.88;;
41946;SDS011;27638;42.184;24.848;2023-05-17T14:36:57;20.33;;;13.07;;
41946;SDS011;27638;42.184;24.848;2023-05-17T14:39:22;17.45;;;12.05;;
41946;SDS011;27638;42.184;24.848;2023-05-17T14:41:48;20.67;;;12.13;;
41946;SDS011;27638;42.184;24.848;2023-05-17T14:44:13;19.83;;;11.43;;
41946;SDS011;27638;42.184;24.848;2023-05-17T14:46:39;15.85;;;10.75;;
41946;SDS011;27638;42.184;24.848;2023-05-17T14:49:05;15.88;;;10.52;;